createdAt,value
2023-01-11T00:01:09.291Z,1.90
2023-01-11T00:03:37.230Z,2.25
2023-01-11T00:06:06.761Z,1.70
2023-01-11T00:08:34.491Z,2.00
2023-01-11T00:11:02.460Z,1.70
2023-01-11T00:13:32.077Z,1.77
2023-01-11T00:16:07.599Z,1.55
2023-01-11T00:18:36.591Z,1.48
2023-01-11T00:21:05.801Z,1.60
2023-01-11T00:23:35.581Z,1.70
2023-01-11T00:26:09.759Z,1.67
2023-01-11T00:28:38.895Z,1.92
2023-01-11T00:31:06.648Z,2.25
2023-01-11T00:33:34.945Z,1.90
2023-01-11T00:36:02.661Z,1.98
2023-01-11T00:38:53.666Z,2.15
2023-01-11T00:41:42.037Z,1.70
2023-01-11T00:44:29.934Z,1.80
2023-01-11T00:47:16.736Z,1.45
2023-01-11T00:49:44.725Z,1.80
2023-01-11T00:52:12.527Z,1.73
2023-01-11T00:54:42.092Z,1.80
2023-01-11T00:57:10.089Z,1.67
2023-01-11T00:59:41.439Z,1.77
2023-01-11T01:02:11.062Z,1.85
2023-01-11T01:04:39.685Z,2.13
2023-01-11T01:07:08.173Z,2.22
2023-01-11T01:09:35.907Z,2.10
2023-01-11T01:12:04.166Z,2.13
2023-01-11T01:14:33.429Z,2.20
2023-01-11T01:17:07.783Z,2.00
2023-01-11T01:19:38.202Z,2.78
2023-01-11T01:22:05.991Z,2.45
2023-01-11T01:24:34.021Z,2.40
2023-01-11T01:27:01.736Z,2.15
2023-01-11T01:29:29.461Z,2.60
2023-01-11T01:31:57.208Z,2.08
2023-01-11T01:34:25.004Z,2.53
2023-01-11T01:36:52.667Z,2.53
2023-01-11T01:39:20.408Z,2.08
2023-01-11T01:41:48.125Z,2.15
2023-01-11T01:44:54.554Z,2.13
2023-01-11T01:47:30.498Z,2.10
2023-01-11T01:50:03.915Z,2.30
2023-01-11T01:52:33.245Z,2.22
2023-01-11T01:55:07.524Z,2.17
2023-01-11T01:57:40.255Z,2.38
2023-01-11T02:00:10.265Z,2.38
2023-01-11T02:02:40.352Z,2.17
2023-01-11T02:05:10.312Z,2.00
2023-01-11T02:07:40.808Z,2.70
2023-01-11T02:10:18.084Z,2.42
2023-01-11T02:13:06.317Z,3.25
2023-01-11T02:15:34.172Z,3.35
2023-01-11T02:18:01.838Z,3.33
2023-01-11T02:21:06.679Z,3.20
2023-01-11T02:23:58.361Z,3.35
2023-01-11T02:27:14.607Z,4.00
2023-01-11T02:29:50.798Z,4.45
2023-01-11T02:32:41.167Z,5.00
2023-01-11T02:35:42.934Z,4.95
2023-01-11T02:38:21.300Z,5.65
2023-01-11T02:41:04.277Z,5.60
2023-01-11T02:44:16.199Z,5.70
2023-01-11T02:47:01.008Z,6.13
2023-01-11T02:49:45.937Z,5.97
2023-01-11T02:52:32.338Z,6.15
2023-01-11T02:55:02.836Z,6.15
2023-01-11T02:57:32.311Z,6.43
2023-01-11T03:00:01.881Z,5.82
2023-01-11T03:02:29.739Z,5.85
2023-01-11T03:04:57.451Z,4.93
2023-01-11T03:07:57.334Z,5.15
2023-01-11T03:10:55.425Z,4.82
2023-01-11T03:13:37.470Z,4.80
2023-01-11T03:16:21.454Z,4.03
2023-01-11T03:19:05.886Z,4.68
2023-01-11T03:22:10.064Z,3.63
2023-01-11T03:24:41.062Z,3.35
2023-01-11T03:27:35.570Z,4.30
2023-01-11T03:30:22.123Z,4.15
2023-01-11T03:33:03.013Z,3.90
2023-01-11T03:36:13.758Z,4.07
2023-01-11T03:38:54.821Z,3.67
2023-01-11T03:41:28.607Z,3.42
2023-01-11T03:44:00.205Z,3.22
2023-01-11T03:46:34.388Z,2.95
2023-01-11T03:49:11.963Z,3.10
2023-01-11T03:51:45.069Z,3.33
2023-01-11T03:54:24.419Z,3.42
2023-01-11T03:57:14.744Z,2.70
2023-01-11T03:59:42.739Z,2.53
2023-01-11T04:02:26.752Z,2.97
2023-01-11T04:04:54.761Z,3.10
2023-01-11T04:07:22.449Z,3.65
2023-01-11T04:09:50.224Z,3.38
2023-01-11T04:12:17.870Z,3.10
2023-01-11T04:14:45.669Z,4.57
2023-01-11T04:17:13.315Z,3.80
2023-01-11T04:19:41.131Z,3.95
2023-01-11T04:22:08.773Z,3.90
2023-01-11T04:24:36.512Z,4.00
2023-01-11T04:27:04.238Z,4.13
2023-01-11T04:29:31.882Z,3.45
2023-01-11T04:31:59.532Z,4.43
2023-01-11T04:34:27.230Z,4.88
2023-01-11T04:36:54.897Z,3.80
2023-01-11T04:39:22.740Z,4.65
2023-01-11T04:42:09.197Z,3.78
2023-01-11T04:44:36.969Z,3.80
2023-01-11T04:47:04.629Z,4.90
2023-01-11T04:49:32.340Z,4.25
2023-01-11T04:52:00.055Z,3.45
2023-01-11T04:54:27.768Z,5.28
2023-01-11T04:56:55.564Z,3.97
2023-01-11T04:59:23.203Z,4.93
2023-01-11T05:01:50.902Z,4.10
2023-01-11T05:04:18.710Z,3.33
2023-01-11T05:06:46.670Z,3.20
2023-01-11T05:09:16.940Z,3.38
2023-01-11T05:11:45.342Z,3.92
2023-01-11T05:14:13.707Z,4.10
2023-01-11T05:16:41.739Z,3.75
2023-01-11T05:19:11.966Z,3.83
2023-01-11T05:21:41.595Z,3.92
2023-01-11T05:24:13.809Z,3.47
2023-01-11T05:26:44.717Z,4.30
2023-01-11T05:29:16.307Z,3.35
2023-01-11T05:31:44.291Z,4.57
2023-01-11T05:34:14.969Z,3.58
2023-01-11T05:36:44.075Z,3.45
2023-01-11T05:39:13.759Z,4.07
2023-01-11T05:41:41.456Z,4.70
2023-01-11T05:44:31.493Z,3.38
2023-01-11T05:46:59.431Z,3.47
2023-01-11T05:49:27.120Z,2.90
2023-01-11T05:51:54.915Z,3.13
2023-01-11T05:54:22.627Z,3.00
2023-01-11T05:56:50.276Z,2.65
2023-01-11T05:59:17.969Z,2.92
2023-01-11T06:01:45.693Z,3.28
2023-01-11T06:04:14.500Z,3.35
2023-01-11T06:06:42.238Z,2.90
2023-01-11T06:09:10.071Z,2.40
2023-01-11T06:11:37.636Z,2.38
2023-01-11T06:14:05.393Z,2.38
2023-01-11T06:16:33.046Z,2.88
2023-01-11T06:19:00.840Z,3.03
2023-01-11T06:21:28.551Z,2.25
2023-01-11T06:23:56.268Z,1.75
2023-01-11T06:26:24.103Z,2.70
2023-01-11T06:28:51.890Z,2.25
2023-01-11T06:31:20.383Z,2.33
2023-01-11T06:33:48.282Z,3.03
2023-01-11T06:36:16.277Z,1.98
2023-01-11T06:38:45.003Z,2.13
2023-01-11T06:41:13.532Z,2.45
2023-01-11T06:43:42.194Z,2.17
2023-01-11T06:46:15.317Z,2.28
2023-01-11T06:48:44.492Z,2.40
2023-01-11T06:51:14.304Z,3.30
2023-01-11T06:53:43.189Z,1.98
2023-01-11T06:56:14.947Z,2.40
2023-01-11T06:58:43.500Z,2.97
2023-01-11T07:01:12.687Z,2.55
2023-01-11T07:03:41.677Z,2.60
2023-01-11T07:06:09.377Z,2.25
2023-01-11T07:08:38.478Z,2.65
2023-01-11T07:11:06.825Z,2.30
2023-01-11T07:13:35.321Z,3.22
2023-01-11T07:16:03.097Z,3.15
2023-01-11T07:18:31.822Z,3.58
2023-01-11T07:20:59.591Z,2.38
2023-01-11T07:23:27.372Z,2.80
2023-01-11T07:25:55.440Z,2.47
2023-01-11T07:28:23.209Z,2.35
2023-01-11T07:30:58.824Z,2.63
2023-01-11T07:33:27.440Z,3.05
2023-01-11T07:35:55.451Z,3.05
2023-01-11T07:38:23.298Z,2.92
2023-01-11T07:40:51.066Z,2.97
2023-01-11T07:43:20.075Z,2.88
2023-01-11T07:45:50.362Z,2.85
2023-01-11T07:48:27.819Z,2.60
2023-01-11T07:50:55.588Z,2.47
2023-01-11T07:53:26.204Z,3.13
2023-01-11T07:55:57.243Z,2.53
2023-01-11T07:58:24.976Z,2.78
2023-01-11T08:00:53.004Z,2.10
2023-01-11T08:03:20.864Z,2.83
2023-01-11T08:05:52.896Z,2.05
2023-01-11T08:08:21.188Z,2.80
2023-01-11T08:11:09.149Z,2.60
2023-01-11T08:13:55.234Z,3.08
2023-01-11T08:18:52.527Z,3.33
2023-01-11T08:21:21.429Z,2.85
2023-01-11T08:23:49.096Z,3.83
2023-01-11T08:26:18.055Z,3.35
2023-01-11T08:28:46.746Z,3.28
2023-01-11T08:31:14.624Z,3.80
2023-01-11T08:33:42.524Z,2.72
2023-01-11T08:36:12.889Z,3.30
2023-01-11T08:38:40.863Z,2.78
2023-01-11T08:41:10.852Z,3.47
2023-01-11T08:43:42.496Z,3.13
2023-01-11T08:46:10.704Z,3.10
2023-01-11T08:48:38.430Z,3.35
2023-01-11T08:51:06.265Z,3.28
2023-01-11T08:53:34.079Z,3.60
2023-01-11T08:56:02.043Z,3.20
2023-01-11T08:58:30.344Z,3.17
2023-01-11T09:01:00.183Z,3.53
2023-01-11T09:03:28.683Z,3.10
2023-01-11T09:05:56.957Z,3.58
2023-01-11T09:08:26.676Z,2.53
2023-01-11T09:10:56.356Z,3.40
2023-01-11T09:13:24.075Z,3.40
2023-01-11T09:15:56.818Z,2.92
2023-01-11T09:18:26.915Z,3.80
2023-01-11T09:20:55.802Z,3.58
2023-01-11T09:23:23.458Z,3.00
2023-01-11T09:25:51.173Z,3.72
2023-01-11T09:28:18.811Z,3.20
2023-01-11T09:30:46.510Z,3.88
2023-01-11T09:33:14.225Z,3.92
2023-01-11T09:35:42.880Z,4.28
2023-01-11T09:38:10.542Z,4.57
2023-01-11T09:41:04.469Z,2.85
2023-01-11T09:43:39.872Z,3.13
2023-01-11T09:46:10.754Z,3.28
2023-01-11T09:48:46.725Z,3.90
2023-01-11T09:51:16.529Z,3.75
2023-01-11T09:53:50.246Z,3.03
2023-01-11T09:56:25.327Z,3.25
2023-01-11T09:59:27.045Z,3.45
2023-01-11T10:02:19.737Z,3.70
2023-01-11T10:05:11.867Z,3.20
2023-01-11T10:18:31.574Z,4.43
2023-01-11T10:19:05.904Z,3.20
2023-01-11T10:21:35.822Z,3.85
2023-01-11T10:24:21.558Z,3.38
2023-01-11T10:26:54.189Z,4.22
2023-01-11T10:29:53.150Z,3.95
2023-01-11T10:32:50.209Z,2.92
2023-01-11T10:35:45.228Z,2.95
2023-01-11T10:38:50.367Z,3.30
2023-01-11T10:41:33.983Z,3.20
2023-01-11T10:44:31.461Z,3.50
2023-01-11T10:47:00.051Z,3.33
2023-01-11T10:50:06.038Z,2.83
2023-01-11T10:52:44.497Z,3.92
2023-01-11T10:58:46.115Z,3.85
2023-01-11T11:02:10.324Z,3.22
2023-01-11T11:05:11.729Z,3.72
2023-01-11T11:07:56.636Z,2.75
2023-01-11T11:10:36.235Z,3.42
2023-01-11T11:13:49.902Z,3.38
2023-01-11T11:16:23.801Z,4.00
2023-01-11T11:18:58.433Z,3.88
2023-01-11T11:21:32.962Z,3.83
2023-01-11T11:24:38.008Z,3.05
2023-01-11T11:27:49.688Z,4.35
2023-01-11T11:30:33.114Z,3.88
2023-01-11T11:33:06.287Z,3.40
2023-01-11T11:35:46.677Z,2.95
2023-01-11T11:38:24.343Z,3.15
2023-01-11T11:41:05.760Z,2.88
2023-01-11T11:43:36.576Z,3.00
2023-01-11T11:46:21.806Z,3.63
2023-01-11T11:49:16.262Z,3.10
2023-01-11T11:51:46.351Z,3.38
2023-01-11T11:54:32.585Z,3.17
2023-01-11T11:59:47.703Z,3.10
2023-01-11T12:02:25.039Z,3.30
2023-01-11T12:04:54.859Z,2.63
2023-01-11T12:07:40.474Z,3.35
2023-01-11T12:10:17.558Z,2.50
2023-01-11T12:13:05.133Z,2.58
2023-01-11T12:15:34.618Z,3.20
2023-01-11T12:18:30.818Z,2.35
2023-01-11T12:21:30.397Z,2.38
2023-01-11T12:24:08.955Z,2.95
2023-01-11T12:27:00.777Z,2.67
2023-01-11T12:29:50.523Z,3.05
2023-01-11T12:32:59.986Z,3.00
2023-01-11T12:36:03.382Z,2.20
2023-01-11T12:38:55.135Z,3.13
2023-01-11T12:41:44.122Z,3.17
2023-01-11T12:44:55.876Z,2.25
2023-01-11T12:47:48.263Z,3.50
2023-01-11T12:50:25.315Z,2.83
2023-01-11T12:53:18.076Z,3.80
2023-01-11T12:56:16.061Z,2.55
2023-01-11T12:59:17.396Z,2.70
2023-01-11T13:02:14.351Z,2.95
2023-01-11T13:04:53.426Z,2.78
2023-01-11T13:07:43.551Z,2.55
2023-01-11T13:10:53.368Z,2.40
2023-01-11T13:13:34.828Z,3.33
2023-01-11T13:16:40.862Z,3.03
2023-01-11T13:19:26.166Z,2.42
2023-01-11T13:21:56.123Z,3.43
2023-01-11T13:24:30.643Z,3.35
2023-01-11T13:27:23.538Z,3.83
2023-01-11T13:29:55.625Z,2.25
2023-01-11T13:32:28.342Z,1.90
2023-01-11T13:35:08.787Z,2.33
2023-01-11T13:38:10.726Z,2.80
2023-01-11T13:40:52.904Z,3.30
2023-01-11T13:43:43.940Z,2.95
2023-01-11T13:47:12.010Z,2.08
2023-01-11T13:49:51.568Z,2.15
2023-01-11T13:52:53.099Z,2.10
2023-01-11T13:55:25.475Z,2.13
2023-01-11T13:58:09.054Z,1.90
2023-01-11T14:00:55.299Z,2.22
2023-01-11T14:03:45.422Z,1.98
2023-01-11T14:06:31.614Z,2.75
2023-01-11T14:12:12.047Z,2.17
2023-01-11T14:14:51.719Z,2.50
2023-01-11T14:18:00.588Z,2.75
2023-01-11T14:20:40.275Z,2.55
2023-01-11T14:23:13.464Z,2.75
2023-01-11T14:26:10.166Z,2.55
2023-01-11T14:28:46.689Z,2.00
2023-01-11T14:31:55.791Z,2.90
2023-01-11T14:35:01.538Z,3.70
2023-01-11T14:38:03.220Z,2.67
2023-01-11T14:40:43.176Z,2.60
2023-01-11T14:43:25.897Z,3.17
2023-01-11T14:46:14.794Z,3.28
2023-01-11T14:49:40.226Z,3.30
2023-01-11T14:52:39.231Z,3.25
2023-01-11T14:55:30.049Z,3.47
2023-01-11T14:58:17.181Z,2.83
2023-01-11T15:00:44.885Z,2.42
2023-01-11T15:03:21.315Z,2.60
2023-01-11T15:05:55.681Z,3.80
2023-01-11T15:08:41.560Z,2.88
2023-01-11T15:11:34.090Z,3.03
2023-01-11T15:14:22.400Z,2.75
2023-01-11T15:17:33.488Z,2.38
2023-01-11T15:20:25.159Z,2.65
2023-01-11T15:23:05.513Z,2.70
2023-01-11T15:25:35.569Z,2.15
2023-01-11T15:28:43.638Z,2.10
2023-01-11T15:31:52.178Z,2.40
2023-01-11T15:34:47.992Z,2.55
2023-01-11T15:37:40.764Z,2.40
2023-01-11T15:40:20.013Z,2.53
2023-01-11T15:43:05.567Z,2.20
2023-01-11T15:46:07.140Z,1.77
2023-01-11T15:49:14.510Z,1.90
2023-01-11T15:52:06.302Z,1.73
2023-01-11T15:55:18.902Z,2.63
2023-01-11T15:58:34.865Z,3.10
2023-01-11T16:01:36.503Z,2.70
2023-01-11T16:05:05.352Z,1.67
2023-01-11T16:07:40.399Z,1.67
2023-01-11T16:10:42.459Z,2.40
2023-01-11T16:13:45.155Z,2.53
2023-01-11T16:16:27.387Z,2.67
2023-01-11T16:19:01.152Z,2.45
2023-01-11T16:21:39.227Z,2.97
2023-01-11T16:24:17.693Z,2.90
2023-01-11T16:26:55.298Z,3.08
2023-01-11T16:29:38.165Z,3.42
2023-01-11T16:32:32.474Z,2.78
2023-01-11T16:35:02.308Z,2.22
2023-01-11T16:37:44.290Z,2.85
2023-01-11T16:40:24.602Z,3.10
2023-01-11T16:43:00.770Z,3.17
2023-01-11T16:45:44.505Z,3.08
2023-01-11T16:48:20.134Z,3.03
2023-01-11T16:51:03.982Z,2.67
2023-01-11T16:53:38.857Z,2.70
2023-01-11T16:56:21.757Z,2.28
2023-01-11T16:59:16.334Z,2.28
2023-01-11T17:01:54.124Z,2.83
2023-01-11T17:04:45.369Z,2.60
2023-01-11T17:07:19.839Z,2.92
2023-01-11T17:09:48.444Z,2.75
2023-01-11T17:12:25.520Z,2.85
2023-01-11T17:15:23.492Z,3.60
2023-01-11T17:17:51.515Z,2.38
2023-01-11T17:20:30.505Z,2.88
2023-01-11T17:23:00.322Z,2.50
2023-01-11T17:25:43.563Z,2.90
2023-01-11T17:28:19.958Z,2.58
2023-01-11T17:30:50.793Z,2.33
2023-01-11T17:33:33.178Z,2.50
2023-01-11T17:36:01.980Z,2.88
2023-01-11T17:38:30.696Z,2.97
2023-01-11T17:41:01.229Z,3.33
2023-01-11T17:43:48.728Z,2.20
2023-01-11T17:46:21.017Z,2.38
2023-01-11T17:48:57.334Z,3.25
2023-01-11T17:51:31.673Z,2.58
2023-01-11T17:53:59.712Z,2.97
2023-01-11T17:56:41.898Z,2.50
2023-01-11T17:59:30.510Z,3.28
2023-01-11T18:02:05.080Z,3.45
2023-01-11T18:04:33.158Z,3.57
2023-01-11T18:07:18.625Z,2.88
2023-01-11T18:09:50.392Z,3.28
2023-01-11T18:12:22.076Z,3.08
2023-01-11T18:14:54.734Z,2.58
2023-01-11T18:17:42.262Z,3.17
2023-01-11T18:20:16.213Z,3.00
2023-01-11T18:23:22.701Z,2.95
2023-01-11T18:25:50.788Z,3.80
2023-01-11T18:28:28.036Z,2.38
2023-01-11T18:31:01.720Z,3.42
2023-01-11T18:33:34.091Z,3.17
2023-01-11T18:36:05.230Z,3.50
2023-01-11T18:38:36.577Z,2.63
2023-01-11T18:41:28.292Z,2.50
2023-01-11T18:43:56.290Z,2.60
2023-01-11T18:46:24.262Z,3.08
2023-01-11T18:48:52.207Z,3.58
2023-01-11T18:51:28.267Z,5.93
2023-01-11T18:53:56.015Z,2.88
2023-01-11T18:56:23.801Z,2.83
2023-01-11T18:58:51.452Z,2.80
2023-01-11T19:01:19.459Z,3.55
2023-01-11T19:03:47.226Z,3.15
2023-01-11T19:06:15.972Z,3.47
2023-01-11T19:08:43.720Z,3.75
2023-01-11T19:11:13.865Z,3.55
2023-01-11T19:13:41.588Z,3.70
2023-01-11T19:16:09.342Z,3.40
2023-01-11T19:18:37.147Z,3.70
2023-01-11T19:21:06.839Z,4.00
2023-01-11T19:23:34.929Z,3.10
2023-01-11T19:26:02.855Z,3.42
2023-01-11T19:28:31.039Z,3.72
2023-01-11T19:30:58.862Z,3.92
2023-01-11T19:33:26.656Z,3.65
2023-01-11T19:35:54.280Z,3.15
2023-01-11T19:38:21.910Z,3.53
2023-01-11T19:40:50.576Z,2.75
2023-01-11T19:43:22.146Z,3.20
2023-01-11T19:45:56.630Z,2.88
2023-01-11T19:48:25.434Z,3.78
2023-01-11T19:51:02.715Z,3.28
2023-01-11T19:53:32.431Z,3.05
2023-01-11T19:56:06.227Z,2.58
2023-01-11T19:58:37.456Z,2.30
2023-01-11T20:01:12.713Z,2.22
2023-01-11T20:03:41.884Z,1.98
2023-01-11T20:06:10.112Z,1.90
2023-01-11T20:08:40.607Z,1.60
2023-01-11T20:11:12.693Z,1.42
2023-01-11T20:13:41.639Z,2.42
2023-01-11T20:16:13.705Z,1.83
2023-01-11T20:18:42.799Z,1.73
2023-01-11T20:21:11.035Z,1.60
2023-01-11T20:23:38.759Z,1.98
2023-01-11T20:26:07.952Z,1.63
2023-01-11T20:28:35.760Z,1.60
2023-01-11T20:31:06.774Z,1.65
2023-01-11T20:33:34.871Z,1.35
2023-01-11T20:36:15.065Z,1.60
2023-01-11T20:38:44.725Z,1.20
2023-01-11T20:41:34.935Z,0.80
2023-01-11T20:44:03.692Z,1.67
2023-01-11T20:46:33.254Z,1.30
2023-01-11T20:49:01.903Z,1.38
2023-01-11T20:51:30.505Z,1.40
2023-01-11T20:53:58.516Z,1.60
2023-01-11T20:56:26.209Z,1.20
2023-01-11T20:58:54.374Z,1.50
2023-01-11T21:01:31.323Z,1.02
2023-01-11T21:04:02.624Z,1.90
2023-01-11T21:06:33.778Z,1.60
2023-01-11T21:09:02.759Z,1.63
2023-01-11T21:11:34.160Z,1.30
2023-01-11T21:14:05.377Z,2.08
2023-01-11T21:16:33.239Z,1.40
2023-01-11T21:19:05.342Z,1.67
2023-01-11T21:21:34.769Z,1.70
2023-01-11T21:24:05.582Z,1.58
2023-01-11T21:26:34.779Z,1.48
2023-01-11T21:29:05.088Z,1.70
2023-01-11T21:31:35.554Z,1.27
2023-01-11T21:34:05.349Z,1.48
2023-01-11T21:36:34.556Z,1.27
2023-01-11T21:39:03.399Z,1.52
2023-01-11T21:41:52.838Z,1.75
2023-01-11T21:44:22.851Z,1.23
2023-01-11T21:46:50.667Z,1.38
2023-01-11T21:49:18.558Z,1.40
2023-01-11T21:51:46.618Z,1.40
2023-01-11T21:54:17.952Z,1.58
2023-01-11T21:56:47.842Z,1.58
2023-01-11T21:59:16.266Z,1.77
2023-01-11T22:01:46.058Z,1.60
2023-01-11T22:04:15.964Z,2.30
2023-01-11T22:06:50.962Z,1.38
2023-01-11T22:09:19.917Z,1.40
2023-01-11T22:11:47.734Z,1.75
2023-01-11T22:14:15.467Z,1.83
2023-01-11T22:16:43.219Z,2.33
2023-01-11T22:19:11.115Z,1.77
2023-01-11T22:21:38.828Z,2.70
2023-01-11T22:24:09.590Z,2.65
2023-01-11T22:26:38.930Z,2.22
2023-01-11T22:29:17.821Z,1.90
2023-01-11T22:31:54.767Z,2.85
2023-01-11T22:34:23.479Z,2.38
2023-01-11T22:36:51.229Z,1.50
2023-01-11T22:39:19.686Z,2.42
2023-01-11T22:41:48.981Z,2.42
2023-01-11T22:44:18.517Z,1.92
2023-01-11T22:46:46.650Z,2.13
2023-01-11T22:49:15.194Z,2.40
2023-01-11T22:51:43.950Z,2.78
2023-01-11T22:54:12.378Z,3.45
2023-01-11T22:56:40.400Z,2.80
2023-01-11T22:59:08.251Z,3.13
2023-01-11T23:01:39.726Z,3.53
2023-01-11T23:04:12.109Z,3.53
2023-01-11T23:06:41.764Z,3.25
2023-01-11T23:09:15.949Z,4.45
2023-01-11T23:12:08.142Z,3.65
2023-01-11T23:14:36.029Z,4.35
2023-01-11T23:17:08.295Z,3.50
2023-01-11T23:19:39.594Z,3.40
2023-01-11T23:22:09.039Z,3.83
2023-01-11T23:24:37.736Z,4.38
2023-01-11T23:27:05.931Z,3.58
2023-01-11T23:29:33.833Z,3.22
2023-01-11T23:32:02.147Z,3.58
2023-01-11T23:34:30.051Z,3.13
2023-01-11T23:36:57.717Z,3.70
2023-01-11T23:39:25.379Z,3.22
2023-01-11T23:42:11.721Z,4.15
2023-01-11T23:44:39.419Z,4.40
2023-01-11T23:47:22.297Z,3.22
2023-01-11T23:49:55.907Z,3.75
2023-01-11T23:52:26.990Z,3.88
2023-01-11T23:54:55.259Z,3.35
2023-01-11T23:57:25.304Z,4.03
2023-01-11T23:59:52.995Z,4.10
